createdAt,value
2022-12-17T00:00:35.880Z,17.48
2022-12-17T00:03:21.500Z,17.30
2022-12-17T00:06:06.821Z,17.33
2022-12-17T00:08:52.325Z,17.92
2022-12-17T00:11:37.815Z,17.25
2022-12-17T00:14:23.239Z,18.23
2022-12-17T00:17:11.342Z,17.70
2022-12-17T00:19:56.610Z,18.15
2022-12-17T00:22:42.098Z,17.25
2022-12-17T00:25:27.810Z,16.50
2022-12-17T00:28:13.275Z,17.35
2022-12-17T00:30:58.781Z,16.45
2022-12-17T00:33:44.286Z,16.67
2022-12-17T00:36:29.747Z,17.20
2022-12-17T00:39:15.239Z,16.50
2022-12-17T00:42:00.717Z,17.50
2022-12-17T00:44:46.288Z,16.60
2022-12-17T00:47:31.714Z,17.35
2022-12-17T00:50:17.168Z,17.23
2022-12-17T00:53:02.717Z,16.15
2022-12-17T00:55:48.157Z,16.23
2022-12-17T00:58:33.658Z,16.70
2022-12-17T01:01:20.075Z,17.55
2022-12-17T01:04:05.233Z,17.08
2022-12-17T01:06:50.721Z,16.98
2022-12-17T01:09:35.994Z,16.65
2022-12-17T01:12:21.449Z,16.27
2022-12-17T01:15:06.953Z,15.90
2022-12-17T01:17:52.427Z,16.52
2022-12-17T01:20:38.024Z,16.25
2022-12-17T01:23:27.015Z,16.55
2022-12-17T01:26:16.153Z,15.05
2022-12-17T01:29:01.707Z,16.10
2022-12-17T01:31:47.019Z,16.00
2022-12-17T01:34:32.241Z,15.93
2022-12-17T01:37:17.808Z,15.13
2022-12-17T01:40:03.162Z,16.50
2022-12-17T01:42:56.949Z,15.98
2022-12-17T01:45:42.506Z,15.80
2022-12-17T01:48:35.801Z,15.95
2022-12-17T01:51:22.170Z,15.60
2022-12-17T01:54:10.102Z,16.77
2022-12-17T01:56:58.866Z,15.75
2022-12-17T01:59:54.974Z,15.27
2022-12-17T02:02:40.440Z,15.63
2022-12-17T02:05:26.338Z,15.68
2022-12-17T02:08:34.679Z,16.50
2022-12-17T02:11:35.423Z,15.60
2022-12-17T02:14:31.280Z,16.00
2022-12-17T02:17:22.340Z,15.25
2022-12-17T02:20:37.613Z,16.02
2022-12-17T02:23:38.099Z,15.38
2022-12-17T02:26:35.083Z,15.77
2022-12-17T02:29:23.160Z,15.77
2022-12-17T02:32:10.102Z,15.52
2022-12-17T02:37:23.599Z,16.02
2022-12-17T02:40:09.138Z,15.07
2022-12-17T02:43:00.452Z,16.58
2022-12-17T02:45:46.055Z,16.30
2022-12-17T02:48:32.041Z,15.15
2022-12-17T02:51:17.603Z,15.48
2022-12-17T02:54:04.127Z,15.95
2022-12-17T02:56:49.552Z,15.73
2022-12-17T02:59:35.026Z,15.63
2022-12-17T03:02:20.481Z,15.68
2022-12-17T03:05:27.691Z,15.20
2022-12-17T03:08:11.118Z,15.80
2022-12-17T03:10:56.506Z,15.13
2022-12-17T03:13:44.013Z,16.30
2022-12-17T03:16:37.201Z,16.25
2022-12-17T03:19:23.300Z,15.82
2022-12-17T03:22:08.794Z,16.65
2022-12-17T03:24:54.251Z,16.73
2022-12-17T03:27:39.646Z,14.20
2022-12-17T03:30:25.641Z,16.17
2022-12-17T03:33:11.075Z,15.77
2022-12-17T03:35:56.537Z,16.67
2022-12-17T03:38:42.111Z,17.23
2022-12-17T03:41:27.570Z,16.13
2022-12-17T03:44:13.098Z,16.77
2022-12-17T03:46:58.635Z,16.23
2022-12-17T03:49:43.952Z,16.42
2022-12-17T03:52:29.526Z,17.42
2022-12-17T03:55:15.018Z,17.10
2022-12-17T03:58:00.387Z,17.25
2022-12-17T04:00:45.887Z,17.80
2022-12-17T04:03:31.235Z,17.67
2022-12-17T04:06:16.424Z,15.82
2022-12-17T04:09:01.735Z,16.65
2022-12-17T04:11:47.265Z,16.15
2022-12-17T04:14:32.726Z,16.38
2022-12-17T04:17:18.099Z,16.50
2022-12-17T04:20:03.683Z,16.80
2022-12-17T04:22:48.994Z,15.75
2022-12-17T04:25:34.530Z,15.05
2022-12-17T04:28:39.669Z,17.73
2022-12-17T04:31:25.427Z,16.55
2022-12-17T04:34:11.142Z,19.50
2022-12-17T04:36:56.578Z,19.63
2022-12-17T04:39:42.055Z,19.10
2022-12-17T04:42:27.491Z,18.75
2022-12-17T04:45:12.952Z,19.50
2022-12-17T04:48:12.016Z,20.88
2022-12-17T04:50:57.404Z,19.43
2022-12-17T04:53:42.856Z,19.17
2022-12-17T04:56:28.302Z,19.83
2022-12-17T04:59:13.674Z,20.45
2022-12-17T05:01:59.142Z,20.30
2022-12-17T05:04:44.555Z,19.42
2022-12-17T05:07:30.143Z,20.33
2022-12-17T05:10:15.605Z,20.00
2022-12-17T05:13:00.982Z,19.52
2022-12-17T05:15:52.771Z,18.88
2022-12-17T05:18:38.356Z,20.02
2022-12-17T05:21:23.703Z,19.38
2022-12-17T05:24:09.976Z,19.55
2022-12-17T05:26:55.535Z,19.52
2022-12-17T05:29:42.792Z,19.77
2022-12-17T05:32:28.366Z,18.90
2022-12-17T05:35:13.997Z,19.75
2022-12-17T05:37:59.347Z,17.50
2022-12-17T05:40:44.922Z,17.42
2022-12-17T05:43:31.361Z,17.77
2022-12-17T05:46:18.042Z,17.60
2022-12-17T05:49:03.529Z,18.50
2022-12-17T05:51:48.933Z,18.58
2022-12-17T05:54:34.431Z,16.95
2022-12-17T05:57:19.827Z,18.55
2022-12-17T06:00:25.150Z,18.08
2022-12-17T06:03:21.208Z,18.75
2022-12-17T06:06:06.819Z,17.42
2022-12-17T06:08:52.378Z,18.70
2022-12-17T06:11:37.730Z,18.17
2022-12-17T06:14:23.219Z,19.23
2022-12-17T06:17:08.554Z,17.98
2022-12-17T06:19:54.010Z,18.38
2022-12-17T06:22:39.478Z,18.15
2022-12-17T06:25:24.913Z,18.65
2022-12-17T06:28:19.911Z,18.10
2022-12-17T06:31:13.017Z,19.23
2022-12-17T06:33:58.965Z,18.25
2022-12-17T06:36:45.180Z,20.05
2022-12-17T06:39:30.552Z,18.55
2022-12-17T06:42:16.071Z,18.50
2022-12-17T06:45:01.538Z,19.95
2022-12-17T06:47:47.088Z,19.30
2022-12-17T06:50:32.634Z,18.88
2022-12-17T06:53:19.489Z,18.08
2022-12-17T06:56:04.915Z,19.55
2022-12-17T06:59:00.990Z,19.65
2022-12-17T07:01:47.295Z,19.13
2022-12-17T07:04:32.539Z,19.45
2022-12-17T07:07:18.122Z,18.73
2022-12-17T07:10:05.841Z,17.85
2022-12-17T07:15:38.922Z,18.80
2022-12-17T07:18:24.403Z,19.17
2022-12-17T07:21:12.278Z,18.05
2022-12-17T07:24:00.515Z,20.08
2022-12-17T07:26:46.007Z,20.80
2022-12-17T07:29:31.385Z,20.08
2022-12-17T07:32:16.943Z,20.48
2022-12-17T07:35:02.434Z,18.73
2022-12-17T07:37:47.739Z,19.90
2022-12-17T07:40:33.219Z,21.58
2022-12-17T07:43:18.652Z,21.92
2022-12-17T07:46:04.326Z,19.30
2022-12-17T07:48:49.437Z,22.33
2022-12-17T07:51:34.805Z,20.90
2022-12-17T07:54:20.335Z,21.40
2022-12-17T07:57:05.799Z,20.98
2022-12-17T07:59:51.355Z,21.73
2022-12-17T08:02:36.972Z,22.95
2022-12-17T08:05:22.333Z,22.67
2022-12-17T08:08:07.731Z,23.23
2022-12-17T08:10:53.241Z,23.00
2022-12-17T08:13:39.674Z,21.63
2022-12-17T08:16:25.589Z,22.83
2022-12-17T08:19:11.079Z,22.80
2022-12-17T08:21:56.688Z,22.42
2022-12-17T08:24:42.153Z,22.95
2022-12-17T08:27:27.697Z,24.13
2022-12-17T08:30:13.117Z,23.45
2022-12-17T08:32:58.556Z,23.00
2022-12-17T08:35:43.985Z,22.92
2022-12-17T08:38:29.502Z,23.00
2022-12-17T08:41:14.932Z,22.27
2022-12-17T08:44:00.257Z,23.15
2022-12-17T08:46:45.731Z,22.70
2022-12-17T08:49:30.995Z,20.52
2022-12-17T08:52:16.477Z,17.85
2022-12-17T08:55:01.834Z,20.10
2022-12-17T08:57:47.376Z,18.58
2022-12-17T09:00:32.884Z,16.42
2022-12-17T09:03:20.080Z,16.33
2022-12-17T09:06:05.585Z,16.13
2022-12-17T09:08:51.107Z,17.77
2022-12-17T09:11:36.522Z,17.92
2022-12-17T09:14:21.982Z,16.13
2022-12-17T09:17:07.510Z,16.52
2022-12-17T09:19:52.934Z,17.00
2022-12-17T09:22:38.447Z,16.33
2022-12-17T09:25:23.723Z,16.48
2022-12-17T09:28:09.217Z,15.95
2022-12-17T09:30:54.747Z,17.23
2022-12-17T09:33:40.523Z,16.08
2022-12-17T09:36:26.791Z,17.15
2022-12-17T09:39:12.224Z,17.15
2022-12-17T09:42:35.060Z,17.13
2022-12-17T09:45:39.367Z,17.48
2022-12-17T09:48:32.252Z,15.63
2022-12-17T09:51:18.531Z,16.83
2022-12-17T09:54:09.562Z,15.75
2022-12-17T09:56:56.511Z,16.20
2022-12-17T09:59:47.419Z,15.18
2022-12-17T10:05:24.705Z,14.23
2022-12-17T10:08:12.086Z,13.82
2022-12-17T10:11:03.319Z,15.05
2022-12-17T10:13:48.649Z,16.50
2022-12-17T10:16:55.984Z,15.43
2022-12-17T10:19:55.259Z,14.73
2022-12-17T10:22:41.085Z,15.23
2022-12-17T10:25:37.722Z,15.20
2022-12-17T10:28:43.951Z,15.45
2022-12-17T10:31:34.321Z,16.35
2022-12-17T10:34:19.769Z,15.43
2022-12-17T10:37:08.080Z,14.88
2022-12-17T10:39:53.692Z,14.93
2022-12-17T10:42:47.230Z,16.30
2022-12-17T10:45:53.693Z,14.68
2022-12-17T10:48:47.658Z,15.10
2022-12-17T10:51:43.821Z,15.23
2022-12-17T10:54:49.052Z,14.45
2022-12-17T10:57:54.943Z,15.63
2022-12-17T11:00:57.581Z,15.50
2022-12-17T11:04:10.693Z,15.77
2022-12-17T11:07:03.275Z,16.38
2022-12-17T11:09:48.744Z,15.93
2022-12-17T11:12:36.439Z,16.38
2022-12-17T11:15:47.572Z,16.38
2022-12-17T11:18:48.226Z,16.10
2022-12-17T11:21:41.996Z,16.05
2022-12-17T11:24:35.258Z,15.82
2022-12-17T11:27:24.140Z,15.55
2022-12-17T11:30:09.593Z,14.73
2022-12-17T11:33:16.760Z,15.38
2022-12-17T11:36:36.820Z,14.77
2022-12-17T11:40:02.923Z,18.70
2022-12-17T11:42:55.451Z,15.35
2022-12-17T11:46:14.980Z,14.15
2022-12-17T11:49:11.198Z,14.65
2022-12-17T11:52:15.943Z,15.52
2022-12-17T11:55:16.348Z,15.82
2022-12-17T11:58:23.804Z,14.60
2022-12-17T12:01:33.909Z,14.80
2022-12-17T12:04:36.597Z,16.15
2022-12-17T12:07:41.032Z,16.55
2022-12-17T12:10:35.836Z,15.88
2022-12-17T12:13:36.136Z,16.48
2022-12-17T12:16:44.632Z,17.15
2022-12-17T12:19:39.967Z,18.25
2022-12-17T12:23:01.608Z,17.52
2022-12-17T12:26:01.892Z,17.83
2022-12-17T12:29:02.535Z,18.73
2022-12-17T12:31:54.999Z,18.70
2022-12-17T12:34:50.363Z,17.00
2022-12-17T12:37:38.342Z,18.80
2022-12-17T12:40:42.913Z,18.83
2022-12-17T12:43:38.901Z,18.45
2022-12-17T12:46:30.350Z,17.73
2022-12-17T12:49:23.450Z,18.55
2022-12-17T12:52:10.950Z,17.50
2022-12-17T12:55:25.425Z,18.33
2022-12-17T12:58:22.057Z,17.73
2022-12-17T13:01:07.672Z,18.88
2022-12-17T13:03:58.086Z,19.17
2022-12-17T13:06:46.310Z,19.70
2022-12-17T13:09:17.036Z,19.65
2022-12-17T13:12:16.796Z,19.17
2022-12-17T13:15:22.077Z,19.42
2022-12-17T13:18:13.364Z,19.95
2022-12-17T13:20:40.070Z,19.80
2022-12-17T13:23:17.496Z,19.38
2022-12-17T13:25:44.531Z,20.40
2022-12-17T13:28:29.126Z,20.45
2022-12-17T13:31:13.710Z,20.25
2022-12-17T13:33:50.966Z,19.73
2022-12-17T13:36:29.518Z,18.90
2022-12-17T13:39:34.843Z,20.38
2022-12-17T13:42:02.441Z,20.98
2022-12-17T13:44:44.063Z,21.17
2022-12-17T13:47:30.597Z,21.58
2022-12-17T13:50:32.103Z,21.33
2022-12-17T13:52:46.262Z,21.60
2022-12-17T13:55:25.417Z,22.63
2022-12-17T13:57:53.539Z,22.20
2022-12-17T14:00:28.108Z,22.35
2022-12-17T14:02:55.138Z,22.92
2022-12-17T14:05:33.494Z,22.65
2022-12-17T14:08:05.377Z,23.98
2022-12-17T14:10:32.931Z,25.85
2022-12-17T14:13:07.560Z,25.85
2022-12-17T14:15:34.645Z,26.70
2022-12-17T14:18:02.478Z,26.00
2022-12-17T14:20:32.143Z,26.95
2022-12-17T14:23:06.631Z,29.38
2022-12-17T14:25:42.565Z,28.83
2022-12-17T14:28:23.089Z,29.10
2022-12-17T14:31:24.789Z,28.00
2022-12-17T14:33:38.256Z,28.83
2022-12-17T14:36:26.498Z,29.48
2022-12-17T14:39:01.401Z,28.83
2022-12-17T14:41:47.470Z,29.27
2022-12-17T14:44:22.615Z,30.48
2022-12-17T14:46:54.886Z,29.33
2022-12-17T14:49:22.397Z,27.95
2022-12-17T14:51:50.090Z,27.67
2022-12-17T14:54:26.061Z,28.65
2022-12-17T14:56:54.723Z,27.40
2022-12-17T14:59:35.710Z,27.83
2022-12-17T15:02:04.545Z,29.52
2022-12-17T15:04:32.653Z,29.67
2022-12-17T15:06:59.832Z,29.55
2022-12-17T15:09:26.555Z,29.52
2022-12-17T15:11:53.219Z,30.08
2022-12-17T15:14:20.031Z,29.73
2022-12-17T15:16:46.723Z,30.15
2022-12-17T15:19:13.402Z,29.67
2022-12-17T15:21:40.426Z,28.55
2022-12-17T15:24:10.817Z,30.25
2022-12-17T15:26:37.532Z,29.30
2022-12-17T15:29:04.367Z,28.35
2022-12-17T15:31:35.450Z,30.17
2022-12-17T15:34:02.615Z,30.23
2022-12-17T15:36:31.816Z,28.17
2022-12-17T15:38:59.202Z,30.23
2022-12-17T15:41:44.419Z,29.58
2022-12-17T15:44:11.135Z,29.98
2022-12-17T15:46:37.904Z,30.33
2022-12-17T15:49:04.658Z,30.73
2022-12-17T15:51:31.419Z,31.17
2022-12-17T15:53:58.190Z,29.80
2022-12-17T15:56:27.510Z,26.98
2022-12-17T15:58:57.795Z,32.67
2022-12-17T16:01:25.046Z,28.90
2022-12-17T16:03:52.085Z,30.98
2022-12-17T16:06:19.070Z,29.75
2022-12-17T16:08:45.862Z,32.50
2022-12-17T16:11:14.223Z,33.28
2022-12-17T16:13:41.007Z,33.08
2022-12-17T16:16:08.807Z,33.28
2022-12-17T16:18:36.674Z,33.20
2022-12-17T16:21:05.737Z,32.33
2022-12-17T16:23:32.757Z,34.30
2022-12-17T16:26:01.711Z,32.35
2022-12-17T16:28:30.203Z,33.67
2022-12-17T16:31:06.556Z,34.55
2022-12-17T16:33:35.983Z,33.17
2022-12-17T16:36:04.045Z,33.47
2022-12-17T16:38:31.183Z,33.30
2022-12-17T16:40:59.832Z,33.03
2022-12-17T16:43:26.797Z,35.05
2022-12-17T16:45:53.961Z,32.78
2022-12-17T16:48:21.973Z,30.35
2022-12-17T16:50:49.947Z,31.65
2022-12-17T16:53:17.946Z,36.65
2022-12-17T16:55:46.707Z,34.03
2022-12-17T16:58:15.339Z,31.65
2022-12-17T17:00:42.661Z,31.70
2022-12-17T17:03:10.091Z,29.73
2022-12-17T17:05:38.713Z,31.60
2022-12-17T17:08:05.967Z,28.45
2022-12-17T17:10:36.197Z,27.65
2022-12-17T17:13:03.624Z,26.05
2022-12-17T17:15:30.420Z,23.27
2022-12-17T17:18:02.560Z,22.92
2022-12-17T17:20:32.413Z,23.13
2022-12-17T17:22:59.915Z,23.15
2022-12-17T17:25:43.902Z,23.15
2022-12-17T17:28:13.669Z,21.77
2022-12-17T17:30:40.384Z,20.70
2022-12-17T17:33:07.084Z,22.75
2022-12-17T17:35:33.822Z,23.27
2022-12-17T17:38:00.966Z,23.85
2022-12-17T17:40:27.662Z,23.88
2022-12-17T17:42:54.333Z,23.67
2022-12-17T17:45:21.070Z,24.20
2022-12-17T17:47:47.792Z,24.52
2022-12-17T17:50:14.525Z,24.52
2022-12-17T17:52:41.207Z,24.27
2022-12-17T17:55:08.233Z,23.73
2022-12-17T17:57:34.917Z,24.90
2022-12-17T18:00:02.672Z,25.95
2022-12-17T18:02:29.468Z,24.58
2022-12-17T18:04:56.368Z,24.60
2022-12-17T18:07:25.521Z,24.35
2022-12-17T18:09:52.630Z,29.58
2022-12-17T18:12:37.901Z,27.83
2022-12-17T18:15:20.321Z,25.45
2022-12-17T18:17:51.025Z,25.63
2022-12-17T18:20:18.281Z,27.33
2022-12-17T18:22:46.322Z,25.70
2022-12-17T18:25:13.905Z,26.00
2022-12-17T18:27:40.646Z,27.23
2022-12-17T18:30:07.849Z,27.30
2022-12-17T18:32:34.543Z,27.50
2022-12-17T18:35:01.366Z,28.73
2022-12-17T18:37:28.130Z,28.13
2022-12-17T18:39:54.837Z,27.92
2022-12-17T18:42:40.039Z,28.38
2022-12-17T18:45:07.358Z,26.73
2022-12-17T18:47:34.073Z,26.83
2022-12-17T18:50:00.908Z,26.25
2022-12-17T18:52:27.724Z,27.80
2022-12-17T18:54:54.544Z,28.67
2022-12-17T18:57:21.234Z,26.92
2022-12-17T18:59:48.795Z,27.88
2022-12-17T19:02:16.018Z,27.67
2022-12-17T19:04:43.139Z,27.95
2022-12-17T19:07:10.029Z,26.90
2022-12-17T19:09:39.358Z,28.77
2022-12-17T19:12:08.091Z,27.83
2022-12-17T19:14:35.568Z,27.10
2022-12-17T19:17:02.683Z,27.15
2022-12-17T19:19:29.414Z,27.30
2022-12-17T19:21:56.466Z,25.70
2022-12-17T19:24:23.819Z,27.92
2022-12-17T19:26:51.515Z,23.88
2022-12-17T19:29:19.921Z,23.65
2022-12-17T19:31:47.243Z,24.27
2022-12-17T19:34:15.929Z,25.15
2022-12-17T19:36:43.277Z,23.48
2022-12-17T19:39:15.981Z,22.98
2022-12-17T19:41:42.834Z,23.90
2022-12-17T19:44:13.626Z,23.25
2022-12-17T19:46:41.234Z,25.42
2022-12-17T19:49:08.509Z,23.65
2022-12-17T19:51:35.271Z,24.90
2022-12-17T19:54:08.009Z,24.55
2022-12-17T19:56:35.731Z,23.10
2022-12-17T19:59:07.108Z,24.00
2022-12-17T20:01:37.032Z,26.33
2022-12-17T20:04:04.954Z,25.08
2022-12-17T20:06:34.372Z,25.02
2022-12-17T20:09:04.473Z,25.42
2022-12-17T20:11:34.831Z,24.35
2022-12-17T20:14:17.431Z,24.27
2022-12-17T20:16:47.416Z,25.05
2022-12-17T20:19:20.191Z,24.90
2022-12-17T20:21:47.821Z,23.77
2022-12-17T20:24:15.631Z,24.70
2022-12-17T20:26:42.562Z,22.90
2022-12-17T20:29:09.690Z,23.83
2022-12-17T20:31:37.136Z,23.63
2022-12-17T20:34:09.287Z,24.17
2022-12-17T20:36:36.189Z,24.08
2022-12-17T20:39:03.484Z,23.50
2022-12-17T20:41:31.611Z,23.38
2022-12-17T20:44:01.878Z,22.67
2022-12-17T20:46:28.680Z,22.13
2022-12-17T20:48:55.471Z,21.58
2022-12-17T20:51:24.934Z,21.98
2022-12-17T20:53:52.859Z,21.83
2022-12-17T20:56:26.480Z,22.45
2022-12-17T20:59:02.491Z,22.77
2022-12-17T21:01:31.532Z,22.35
2022-12-17T21:03:59.207Z,22.90
2022-12-17T21:06:35.243Z,23.35
2022-12-17T21:09:02.226Z,20.65
2022-12-17T21:11:30.198Z,19.38
2022-12-17T21:13:57.178Z,19.30
2022-12-17T21:16:29.643Z,18.50
2022-12-17T21:18:58.571Z,20.35
2022-12-17T21:21:28.412Z,20.40
2022-12-17T21:23:56.043Z,21.13
2022-12-17T21:26:25.878Z,19.83
2022-12-17T21:28:54.571Z,20.80
2022-12-17T21:31:27.140Z,19.20
2022-12-17T21:33:58.159Z,18.83
2022-12-17T21:36:27.426Z,18.27
2022-12-17T21:38:55.254Z,18.05
2022-12-17T21:41:25.284Z,17.35
2022-12-17T21:46:19.412Z,17.17
2022-12-17T21:48:46.655Z,18.40
2022-12-17T21:51:14.045Z,17.92
2022-12-17T21:53:43.437Z,17.88
2022-12-17T21:56:16.251Z,21.93
2022-12-17T21:58:45.275Z,20.65
2022-12-17T22:01:25.015Z,19.52
2022-12-17T22:06:24.666Z,18.98
2022-12-17T22:08:59.301Z,19.52
2022-12-17T22:11:28.983Z,19.05
2022-12-17T22:14:07.356Z,19.85
2022-12-17T22:16:39.366Z,18.08
2022-12-17T22:19:07.437Z,18.27
2022-12-17T22:21:40.061Z,17.95
2022-12-17T22:24:07.447Z,18.48
2022-12-17T22:26:34.615Z,21.35
2022-12-17T22:29:01.513Z,20.02
2022-12-17T22:31:46.675Z,19.05
2022-12-17T22:35:21.755Z,19.90
2022-12-17T22:40:51.850Z,19.23
2022-12-17T22:44:34.481Z,20.00
2022-12-17T22:44:43.450Z,18.00
2022-12-17T22:45:41.146Z,18.77
2022-12-17T22:48:09.663Z,19.75
2022-12-17T22:51:05.406Z,19.73
2022-12-17T22:53:24.577Z,18.88
2022-12-17T22:55:53.292Z,18.92
2022-12-17T22:58:21.086Z,19.33
2022-12-17T23:00:47.776Z,18.63
2022-12-17T23:03:14.540Z,17.77
2022-12-17T23:05:42.025Z,19.13
2022-12-17T23:08:08.749Z,19.38
2022-12-17T23:10:35.570Z,18.95
2022-12-17T23:13:02.293Z,19.40
2022-12-17T23:15:34.004Z,20.70
2022-12-17T23:18:03.255Z,20.15
2022-12-17T23:20:32.618Z,20.27
2022-12-17T23:23:00.178Z,21.13
2022-12-17T23:25:29.081Z,22.65
2022-12-17T23:27:55.891Z,21.58
2022-12-17T23:30:22.723Z,21.00
2022-12-17T23:32:49.519Z,21.02
2022-12-17T23:35:16.249Z,21.60
2022-12-17T23:37:42.973Z,22.75
2022-12-17T23:40:11.405Z,22.80
2022-12-17T23:42:38.717Z,21.08
2022-12-17T23:45:06.718Z,20.55
2022-12-17T23:47:33.662Z,21.92
2022-12-17T23:50:00.416Z,22.08
2022-12-17T23:52:27.155Z,21.27
2022-12-17T23:54:54.059Z,21.48
2022-12-17T23:57:20.778Z,21.80
2022-12-17T23:59:47.464Z,20.42
